Allyn, WA

8:05 AM PDT on August 27, 2014 (GMT -0700)
Bremerton National | Change Station
CLOSE
Current Station
Airport
Location: Bremerton,
Elevation: 443 ft
Nearby Weather Stations

Elev 443 ft 47.49 °N, 122.76 °W | Updated 1 day ago

Fog
Fog
59 °F
Feels Like 59 °F
N
1
Wind Variable Wind from WSW
Gusts 1 mph

Today
High -- | Low -- °F
--% Chance of Precip.
Yesterday
High -- | Low -- °F
Precip. -- in
6:23 AM 8:01 PM
Waxing Crescent, 4% visible
Pressure 30.07 in
Visibility 10.0 miles
Clouds Clear
Dew Point 57 °F
Humidity 93%
Rainfall 0.00 in
Snow Depth Not available.
UV 7 out of 12
Pollen 3.80 out of 12
PM2.5 Good
Flu Activity Not available.
METAR KPWT 251855Z 00000KT 10SM CLR 25/14 A3007 RMK AO1

More Conditions Fewer Conditions

Pressure 30.07 in
Visibility 10.0 miles
Clouds Clear
Dew Point 57 °F
Humidity 93%
Rainfall 0.00 in
Snow Depth Not available.
UV 7 out of 12
Pollen 3.80 out of 12
PM2.5 Good
Flu Activity Not available.
METAR KPWT 251855Z 00000KT 10SM CLR 25/14 A3007 RMK AO1

More Conditions Fewer Conditions

10-Day Weather Forecast

Almanac

Astronomy

Aug. 27, 2014 Rise Set
Actual Time 6:23 AM PDT 8:01 PM PDT
Civil Twilight 5:51 AM PDT 8:33 PM PDT
Nautical Twilight 5:12 AM PDT 9:12 PM PDT
Astronomical Twilight 4:29 AM PDT 9:54 PM PDT
Moon 8:36 AM PDT 8:43 PM PDT
Length of Visible Light 14h 41m
Length of Day
13h 37m
Tomorrow will be 3m 14s shorter.
Waxing Crescent, 4% of the Moon is Illuminated
Today
Waxing Crescent
Sep 2
First Quarter
Sep 8
Full
Sep 15
Last Quarter
Sep 24
New

Today's Extremes

State Highs State Lows

Community

WunderPhotos

Upload Photos

1,747,703 photos uploaded!

Nearby

Air Quality

  Air Quality AQ Index Pollutant
Yesterday Good
OZONE
Yesterday Good
PM2.5
Current Good
PM2.5

Snow Depth

Station Depth Elevation
Mount Crag 0 in 4050 ft
Dungeness 0 in 4100 ft
Burnt Mountain 0 in 4200 ft
Alpine Meadows 0 in 3500 ft
Meadows Pass 0 in 3500 ft

Earthquake Activity

City Distance Mag. Time & Date
No recent earthquake activity has been reported nearby.
Minimum magnitude displayed is 2.5.

Coastal Water Temperatures

Place Temperature
Port Townsend, WA 53.1 °F
Seattle, WA 55.9 °F
Friday Harbor, WA 53.1 °F
Tacoma, WA 55.0 °F

Nearby Weather Stations